Time,TemperatureF,DewpointF,PressureIn,WindDirection,WindDirectionDegrees,WindSpeedMPH,WindSpeedGustMPH,Humidity,HourlyPrecipIn,Conditions,Clouds,dailyrainin,SoftwareType,DateUTC
2013-03-18 05:24:00,38.3,19.4,-100.00,WNW,286,5.4,5.4,46,0.00,,,0.00,VWS V14.01,2013-03-18 12:24:00,
2013-03-18 05:25:00,38.3,19.4,-100.00,WNW,286,5.4,5.4,46,0.00,,,0.00,VWS V14.01,2013-03-18 12:25:00,
2013-03-18 05:30:00,27.7,20.5,-100.00,West,263,0.0,0.0,74,0.00,,,0.00,VWS V14.01,2013-03-18 12:30:00,
2013-03-18 05:35:00,27.9,21.0,-100.00,West,267,0.0,0.0,75,0.00,,,0.00,VWS V14.01,2013-03-18 12:35:00,
2013-03-18 05:40:00,28.4,21.5,-100.00,West,267,0.0,0.0,75,0.00,,,0.00,VWS V14.01,2013-03-18 12:40:00,
2013-03-18 05:45:00,28.6,21.4,-100.00,West,271,0.0,0.0,74,0.00,,,0.00,VWS V14.01,2013-03-18 12:45:00,
2013-03-18 05:50:00,28.6,21.0,-100.00,West,271,0.0,0.0,73,0.00,,,0.00,VWS V14.01,2013-03-18 12:50:00,
2013-03-18 05:55:00,28.6,21.0,-100.00,West,271,0.0,0.0,73,0.00,,,0.00,VWS V14.01,2013-03-18 12:55:00,
2013-03-18 06:00:00,28.4,20.5,-100.00,West,271,0.0,0.0,72,0.00,,,0.00,VWS V14.01,2013-03-18 13:00:00,
2013-03-18 06:04:00,28.0,20.2,-100.00,West,271,0.0,0.0,72,0.00,,,0.00,VWS V14.01,2013-03-18 13:04:00,
2013-03-18 06:09:00,27.7,19.9,-100.00,West,271,0.0,0.0,72,0.00,,,0.00,VWS V14.01,2013-03-18 13:09:00,
2013-03-18 06:15:00,27.3,19.8,-100.00,West,271,0.0,0.0,73,0.00,,,0.00,VWS V14.01,2013-03-18 13:15:00,
2013-03-18 06:20:00,27.0,20.1,-100.00,West,271,0.0,0.0,75,0.00,,,0.00,VWS V14.01,2013-03-18 13:20:00,
2013-03-18 06:24:00,26.8,20.2,-100.00,West,271,0.0,0.0,76,0.00,,,0.00,VWS V14.01,2013-03-18 13:24:00,
2013-03-18 06:29:00,26.4,19.9,-100.00,West,271,0.0,0.0,76,0.00,,,0.00,VWS V14.01,2013-03-18 13:29:00,
2013-03-18 06:34:00,26.1,19.2,-100.00,West,271,0.0,0.0,75,0.00,,,0.00,VWS V14.01,2013-03-18 13:34:00,
2013-03-18 06:39:00,25.7,19.2,-100.00,West,271,0.0,0.0,76,0.00,,,0.00,VWS V14.01,2013-03-18 13:39:00,
2013-03-18 06:44:00,25.5,19.3,-100.00,West,271,0.0,0.0,77,0.00,,,0.00,VWS V14.01,2013-03-18 13:44:00,
2013-03-18 06:49:00,25.7,19.8,-100.00,West,271,0.0,0.0,78,0.00,,,0.00,VWS V14.01,2013-03-18 13:49:00,
2013-03-18 06:54:00,25.7,19.8,-100.00,SSE,162,0.0,0.0,78,0.00,,,0.00,VWS V14.01,2013-03-18 13:54:00,
2013-03-18 06:59:00,25.3,19.1,-100.00,SSE,162,0.0,0.0,77,0.00,,,0.00,VWS V14.01,2013-03-18 13:59:00,
2013-03-18 07:04:00,25.2,18.7,-100.00,SSE,162,0.0,0.0,76,0.00,,,0.00,VWS V14.01,2013-03-18 14:04:00,
2013-03-18 07:09:00,25.2,19.0,-100.00,SSE,162,0.0,0.0,77,0.00,,,0.00,VWS V14.01,2013-03-18 14:09:00,
2013-03-18 07:14:00,25.2,19.0,-100.00,SSE,162,0.0,0.0,77,0.00,,,0.00,VWS V14.01,2013-03-18 14:14:00,
2013-03-18 07:19:00,25.0,18.8,-100.00,SSE,162,0.0,0.0,77,0.00,,,0.00,VWS V14.01,2013-03-18 14:19:00,
2013-03-18 07:24:00,25.0,18.8,-100.00,SSE,162,0.0,0.0,77,0.00,,,0.00,VWS V14.01,2013-03-18 14:24:00,
2013-03-18 07:29:00,25.0,18.8,-100.00,SSE,162,0.0,0.0,77,0.00,,,0.00,VWS V14.01,2013-03-18 14:29:00,
2013-03-18 07:34:00,25.2,19.3,-100.00,SSE,162,0.0,0.0,78,0.00,,,0.00,VWS V14.01,2013-03-18 14:34:00,
2013-03-18 07:39:00,25.2,19.3,-100.00,SSE,162,0.0,0.0,78,0.00,,,0.00,VWS V14.01,2013-03-18 14:39:00,
2013-03-18 07:44:00,25.3,19.5,-100.00,SSE,162,0.0,0.0,78,0.00,,,0.00,VWS V14.01,2013-03-18 14:44:00,
2013-03-18 07:49:00,25.5,19.0,-100.00,SSE,162,0.0,0.0,76,0.00,,,0.00,VWS V14.01,2013-03-18 14:49:00,
2013-03-18 07:54:00,25.3,18.2,-100.00,SSE,162,0.0,0.0,74,0.00,,,0.00,VWS V14.01,2013-03-18 14:54:00,
2013-03-18 07:59:00,25.3,17.9,-100.00,SSE,162,0.0,0.0,73,0.00,,,0.00,VWS V14.01,2013-03-18 14:59:00,
2013-03-18 08:04:00,25.3,17.3,-100.00,SSE,162,0.0,0.0,71,0.00,,,0.00,VWS V14.01,2013-03-18 15:04:00,
2013-03-18 08:09:00,25.5,17.8,-100.00,SSE,162,0.0,0.0,72,0.00,,,0.00,VWS V14.01,2013-03-18 15:09:00,
2013-03-18 08:14:00,25.7,17.9,-100.00,SSE,162,0.0,0.0,72,0.00,,,0.00,VWS V14.01,2013-03-18 15:14:00,
2013-03-18 08:19:00,25.9,18.1,-100.00,SSE,162,0.0,0.0,72,0.00,,,0.00,VWS V14.01,2013-03-18 15:19:00,
2013-03-18 08:24:00,26.2,18.5,-100.00,SSE,162,0.0,0.0,72,0.00,,,0.00,VWS V14.01,2013-03-18 15:24:00,
2013-03-18 08:29:00,26.6,18.5,-100.00,SSE,162,0.0,0.0,71,0.00,,,0.00,VWS V14.01,2013-03-18 15:29:00,
2013-03-18 08:34:00,27.0,18.8,-100.00,SSE,162,0.0,0.0,71,0.00,,,0.00,VWS V14.01,2013-03-18 15:34:00,
2013-03-18 08:39:00,27.7,19.5,-100.00,SSE,162,0.0,0.0,71,0.00,,,0.00,VWS V14.01,2013-03-18 15:39:00,
2013-03-18 08:44:00,28.0,19.2,-100.00,SSE,168,0.0,0.0,69,0.00,,,0.00,VWS V14.01,2013-03-18 15:44:00,
2013-03-18 08:49:00,28.6,19.0,-100.00,SSE,159,0.0,0.0,67,0.00,,,0.00,VWS V14.01,2013-03-18 15:49:00,
2013-03-18 08:54:00,29.1,19.2,-100.00,SSE,156,0.0,0.0,66,0.00,,,0.00,VWS V14.01,2013-03-18 15:54:00,
2013-03-18 08:59:00,29.7,19.0,-100.00,SSE,167,0.0,0.0,64,0.00,,,0.00,VWS V14.01,2013-03-18 15:59:00,
2013-03-18 09:04:00,30.2,19.1,-100.00,SSE,152,0.0,0.0,63,0.00,,,0.00,VWS V14.01,2013-03-18 16:04:00,
2013-03-18 09:09:00,30.7,19.6,-100.00,SSE,155,0.0,0.0,63,0.00,,,0.00,VWS V14.01,2013-03-18 16:09:00,
2013-03-18 09:14:00,31.5,19.6,-100.00,SSE,152,0.0,0.0,61,0.00,,,0.00,VWS V14.01,2013-03-18 16:14:00,
2013-03-18 09:19:00,32.2,20.3,-100.00,SSE,160,2.7,5.4,61,0.00,,,0.00,VWS V14.01,2013-03-18 16:19:00,
2013-03-18 09:24:00,32.5,20.6,-100.00,SSE,165,3.6,3.6,61,0.00,,,0.00,VWS V14.01,2013-03-18 16:24:00,
2013-03-18 09:29:00,33.1,20.3,-100.00,South,173,0.0,0.0,59,0.00,,,0.00,VWS V14.01,2013-03-18 16:29:00,
2013-03-18 09:34:00,33.6,20.0,-100.00,SSW,196,0.0,0.0,57,0.00,,,0.00,VWS V14.01,2013-03-18 16:34:00,
2013-03-18 09:39:00,34.5,19.6,-100.00,SE,138,0.0,0.0,54,0.00,,,0.00,VWS V14.01,2013-03-18 16:39:00,
2013-03-18 09:44:00,35.2,20.3,-100.00,SSE,157,0.0,0.0,54,0.00,,,0.00,VWS V14.01,2013-03-18 16:44:00,
2013-03-18 09:49:00,35.8,19.4,-100.00,ESE,118,2.7,2.7,51,0.00,,,0.00,VWS V14.01,2013-03-18 16:49:00,
2013-03-18 09:54:00,35.8,20.3,-100.00,South,176,3.6,4.0,53,0.00,,,0.00,VWS V14.01,2013-03-18 16:54:00,
2013-03-18 09:59:00,36.0,20.5,-100.00,SSW,212,2.7,3.1,53,0.00,,,0.00,VWS V14.01,2013-03-18 16:59:00,
2013-03-18 10:04:00,36.5,20.1,-100.00,SW,219,3.6,4.0,51,0.00,,,0.00,VWS V14.01,2013-03-18 17:04:00,
2013-03-18 10:09:00,36.7,20.3,-100.00,South,191,4.0,4.0,51,0.00,,,0.00,VWS V14.01,2013-03-18 17:09:00,
2013-03-18 10:14:00,36.9,20.0,-100.00,SW,214,2.7,2.7,50,0.00,,,0.00,VWS V14.01,2013-03-18 17:14:00,
2013-03-18 10:19:00,37.2,20.8,-100.00,South,182,0.0,0.0,51,0.00,,,0.00,VWS V14.01,2013-03-18 17:19:00,
2013-03-18 10:24:00,37.4,20.5,-100.00,SSE,163,6.7,6.7,50,0.00,,,0.00,VWS V14.01,2013-03-18 17:24:00,
2013-03-18 10:29:00,37.9,20.5,-100.00,South,186,0.0,2.7,49,0.00,,,0.00,VWS V14.01,2013-03-18 17:29:00,
2013-03-18 10:34:00,38.1,20.7,-100.00,SW,217,4.0,4.0,49,0.00,,,0.00,VWS V14.01,2013-03-18 17:34:00,
2013-03-18 10:39:00,38.7,20.2,-100.00,SSE,154,4.0,4.0,47,0.00,,,0.00,VWS V14.01,2013-03-18 17:39:00,
2013-03-18 10:44:00,39.4,21.3,-100.00,SSE,152,4.0,5.4,48,0.00,,,0.00,VWS V14.01,2013-03-18 17:44:00,
2013-03-18 10:49:00,40.1,20.5,-100.00,SW,218,3.6,3.6,45,0.00,,,0.00,VWS V14.01,2013-03-18 17:49:00,
2013-03-18 10:54:00,40.3,20.6,-100.00,SSW,193,2.7,4.0,45,0.00,,,0.00,VWS V14.01,2013-03-18 17:54:00,
2013-03-18 10:59:00,40.8,21.1,-100.00,SSW,210,3.1,3.1,45,0.00,,,0.00,VWS V14.01,2013-03-18 17:59:00,
2013-03-18 11:04:00,41.5,21.3,-100.00,South,188,4.0,6.3,44,0.00,,,0.00,VWS V14.01,2013-03-18 18:04:00,
2013-03-18 11:09:00,41.9,21.0,-100.00,WSW,238,0.0,3.1,43,0.00,,,0.00,VWS V14.01,2013-03-18 18:09:00,
2013-03-18 11:14:00,42.3,20.8,-100.00,ESE,108,3.1,3.6,42,0.00,,,0.00,VWS V14.01,2013-03-18 18:14:00,
2013-03-18 11:19:00,42.8,21.3,-100.00,East,98,0.0,0.0,42,0.00,,,0.00,VWS V14.01,2013-03-18 18:19:00,
2013-03-18 11:24:00,43.3,21.2,-100.00,SE,141,8.1,8.1,41,0.00,,,0.00,VWS V14.01,2013-03-18 18:24:00,
2013-03-18 11:29:00,43.7,21.6,-100.00,South,183,2.2,4.5,41,0.00,,,0.00,VWS V14.01,2013-03-18 18:29:00,
2013-03-18 11:34:00,43.7,21.6,-100.00,SSE,164,2.7,4.9,41,0.00,,,0.00,VWS V14.01,2013-03-18 18:34:00,
2013-03-18 11:39:00,43.9,21.1,-100.00,WNW,283,2.7,2.7,40,0.00,,,0.00,VWS V14.01,2013-03-18 18:39:00,
2013-03-18 11:44:00,44.1,21.3,-100.00,East,91,0.0,0.0,40,0.00,,,0.00,VWS V14.01,2013-03-18 18:44:00,
2013-03-18 11:49:00,44.4,21.6,-100.00,SSW,194,3.1,4.9,40,0.00,,,0.00,VWS V14.01,2013-03-18 18:49:00,
2013-03-18 11:54:00,45.3,21.8,-100.00,SW,230,3.1,3.6,39,0.00,,,0.00,VWS V14.01,2013-03-18 18:54:00,
2013-03-18 11:59:00,46.0,21.9,-100.00,ENE,70,0.0,2.2,38,0.00,,,0.00,VWS V14.01,2013-03-18 18:59:00,
2013-03-18 12:04:00,46.0,22.5,-100.00,SSE,160,3.1,3.6,39,0.00,,,0.00,VWS V14.01,2013-03-18 19:04:00,
2013-03-18 12:09:00,46.4,22.2,-100.00,South,178,4.0,4.0,38,0.00,,,0.00,VWS V14.01,2013-03-18 19:09:00,
2013-03-18 12:14:00,46.4,21.6,-100.00,SE,135,0.0,0.0,37,0.00,,,0.00,VWS V14.01,2013-03-18 19:14:00,
2013-03-18 12:19:00,46.4,22.2,-100.00,SE,136,5.4,5.4,38,0.00,,,0.00,VWS V14.01,2013-03-18 19:19:00,
2013-03-18 12:24:00,47.3,23.0,-100.00,SE,129,3.1,4.0,38,0.00,,,0.00,VWS V14.01,2013-03-18 19:24:00,
2013-03-18 12:29:00,48.0,23.0,-100.00,SSE,154,5.4,5.4,37,0.00,,,0.00,VWS V14.01,2013-03-18 19:29:00,
2013-03-18 12:34:00,48.2,22.5,-100.00,NE,54,3.1,3.1,36,0.00,,,0.00,VWS V14.01,2013-03-18 19:34:00,
2013-03-18 12:39:00,47.8,22.9,-100.00,SSW,198,2.2,2.7,37,0.00,,,0.00,VWS V14.01,2013-03-18 19:39:00,
2013-03-18 12:44:00,47.5,21.9,-100.00,NW,314,0.0,0.0,36,0.00,,,0.00,VWS V14.01,2013-03-18 19:44:00,
2013-03-18 12:49:00,47.8,22.9,-100.00,SSW,207,5.8,5.8,37,0.00,,,0.00,VWS V14.01,2013-03-18 19:49:00,
2013-03-18 12:54:00,48.7,22.3,-100.00,WNW,285,3.6,3.6,35,0.00,,,0.00,VWS V14.01,2013-03-18 19:54:00,
2013-03-18 12:59:00,48.6,22.2,-100.00,WSW,239,2.7,3.1,35,0.00,,,0.00,VWS V14.01,2013-03-18 19:59:00,
2013-03-18 13:04:00,48.7,20.9,-100.00,WSW,244,2.7,5.8,33,0.00,,,0.00,VWS V14.01,2013-03-18 20:04:00,
2013-03-18 13:09:00,48.9,21.1,-100.00,SSW,212,0.0,5.8,33,0.00,,,0.00,VWS V14.01,2013-03-18 20:09:00,
2013-03-18 13:14:00,49.1,20.5,-100.00,SSE,149,0.0,0.0,32,0.00,,,0.00,VWS V14.01,2013-03-18 20:14:00,
2013-03-18 13:19:00,49.5,20.9,-100.00,SSE,162,2.2,3.1,32,0.00,,,0.00,VWS V14.01,2013-03-18 20:19:00,
2013-03-18 13:24:00,49.8,21.2,-100.00,WSW,237,0.0,0.0,32,0.00,,,0.00,VWS V14.01,2013-03-18 20:24:00,
2013-03-18 13:29:00,50.2,21.5,-100.00,SW,231,4.0,4.0,32,0.00,,,0.00,VWS V14.01,2013-03-18 20:29:00,
2013-03-18 13:34:00,50.9,21.4,-100.00,WNW,287,0.0,2.7,31,0.00,,,0.00,VWS V14.01,2013-03-18 20:34:00,
2013-03-18 13:39:00,50.9,20.6,-100.00,WSW,243,2.7,3.6,30,0.00,,,0.00,VWS V14.01,2013-03-18 20:39:00,
2013-03-18 13:44:00,50.5,20.3,-100.00,WSW,242,0.0,0.0,30,0.00,,,0.00,VWS V14.01,2013-03-18 20:44:00,
2013-03-18 13:49:00,51.1,20.8,-100.00,West,264,3.1,3.6,30,0.00,,,0.00,VWS V14.01,2013-03-18 20:49:00,
2013-03-18 13:54:00,51.1,20.0,-100.00,NNE,24,0.0,0.0,29,0.00,,,0.00,VWS V14.01,2013-03-18 20:54:00,
2013-03-18 13:59:00,50.7,19.6,-100.00,West,268,3.1,4.0,29,0.00,,,0.00,VWS V14.01,2013-03-18 20:59:00,
2013-03-18 14:04:00,50.7,19.6,-100.00,WNW,291,4.0,4.0,29,0.00,,,0.00,VWS V14.01,2013-03-18 21:04:00,
2013-03-18 14:09:00,50.7,19.6,-100.00,WNW,292,0.0,0.0,29,0.00,,,0.00,VWS V14.01,2013-03-18 21:09:00,
2013-03-18 14:14:00,50.7,20.4,-100.00,NW,323,0.0,0.0,30,0.00,,,0.00,VWS V14.01,2013-03-18 21:14:00,
2013-03-18 14:19:00,51.8,20.6,-100.00,ENE,78,2.7,3.6,29,0.00,,,0.00,VWS V14.01,2013-03-18 21:19:00,
2013-03-18 14:24:00,51.4,19.4,-100.00,South,184,0.0,0.0,28,0.00,,,0.00,VWS V14.01,2013-03-18 21:24:00,
2013-03-18 14:29:00,51.6,20.4,-100.00,SW,235,3.6,3.6,29,0.00,,,0.00,VWS V14.01,2013-03-18 21:29:00,
2013-03-18 14:34:00,52.2,20.1,-100.00,SSE,151,3.1,3.6,28,0.00,,,0.00,VWS V14.01,2013-03-18 21:34:00,
2013-03-18 14:39:00,52.0,19.1,-100.00,ESE,104,0.0,0.0,27,0.00,,,0.00,VWS V14.01,2013-03-18 21:39:00,
2013-03-18 14:44:00,52.0,19.1,-100.00,NE,51,0.0,2.7,27,0.00,,,0.00,VWS V14.01,2013-03-18 21:44:00,
2013-03-18 14:49:00,52.2,19.2,-100.00,East,96,3.6,4.0,27,0.00,,,0.00,VWS V14.01,2013-03-18 21:49:00,
2013-03-18 14:54:00,52.0,19.1,-100.00,SSW,209,3.6,3.6,27,0.00,,,0.00,VWS V14.01,2013-03-18 21:54:00,
2013-03-18 14:59:00,52.2,19.2,-100.00,SE,136,0.0,0.0,27,0.00,,,0.00,VWS V14.01,2013-03-18 21:59:00,
2013-03-18 15:04:00,52.5,20.4,-100.00,ENE,76,0.0,0.0,28,0.00,,,0.00,VWS V14.01,2013-03-18 22:04:00,
2013-03-18 15:09:00,52.7,19.7,-100.00,SE,138,2.7,4.0,27,0.00,,,0.00,VWS V14.01,2013-03-18 22:09:00,
2013-03-18 15:14:00,52.7,19.7,-100.00,East,93,0.0,0.0,27,0.00,,,0.00,VWS V14.01,2013-03-18 22:14:00,
2013-03-18 15:19:00,52.9,19.8,-100.00,ENE,76,0.0,0.0,27,0.00,,,0.00,VWS V14.01,2013-03-18 22:19:00,
2013-03-18 15:24:00,53.2,20.1,-100.00,East,91,3.1,3.1,27,0.00,,,0.00,VWS V14.01,2013-03-18 22:24:00,
2013-03-18 15:29:00,52.9,19.8,-100.00,NNW,341,2.7,2.7,27,0.00,,,0.00,VWS V14.01,2013-03-18 22:29:00,
2013-03-18 15:34:00,52.5,19.5,-100.00,ENE,67,0.0,0.0,27,0.00,,,0.00,VWS V14.01,2013-03-18 22:34:00,
2013-03-18 15:39:00,52.9,19.8,-100.00,East,90,0.0,0.0,27,0.00,,,0.00,VWS V14.01,2013-03-18 22:39:00,
2013-03-18 15:44:00,52.7,19.7,-100.00,South,185,0.0,0.0,27,0.00,,,0.00,VWS V14.01,2013-03-18 22:44:00,
2013-03-18 15:49:00,53.1,20.0,-100.00,North,8,0.0,0.0,27,0.00,,,0.00,VWS V14.01,2013-03-18 22:49:00,
2013-03-18 15:54:00,53.1,20.0,-100.00,West,265,2.2,2.7,27,0.00,,,0.00,VWS V14.01,2013-03-18 22:54:00,
2013-03-18 15:59:00,52.7,19.7,-100.00,NW,320,0.0,0.0,27,0.00,,,0.00,VWS V14.01,2013-03-18 22:59:00,
2013-03-18 16:04:00,52.7,19.7,-100.00,NE,49,3.1,5.4,27,0.00,,,0.00,VWS V14.01,2013-03-18 23:04:00,
2013-03-18 16:09:00,53.1,20.0,-100.00,ESE,108,2.2,3.1,27,0.00,,,0.00,VWS V14.01,2013-03-18 23:09:00,
2013-03-18 16:14:00,53.4,20.3,-100.00,East,84,3.1,5.4,27,0.00,,,0.00,VWS V14.01,2013-03-18 23:14:00,
2013-03-18 16:19:00,53.1,20.0,-100.00,East,94,0.0,0.0,27,0.00,,,0.00,VWS V14.01,2013-03-18 23:19:00,
2013-03-18 16:24:00,52.9,19.8,-100.00,NE,48,0.0,0.0,27,0.00,,,0.00,VWS V14.01,2013-03-18 23:24:00,
2013-03-18 16:29:00,52.7,19.7,-100.00,ENE,59,0.0,0.0,27,0.00,,,0.00,VWS V14.01,2013-03-18 23:29:00,
2013-03-18 16:34:00,52.3,19.4,-100.00,East,82,3.6,3.6,27,0.00,,,0.00,VWS V14.01,2013-03-18 23:34:00,
2013-03-18 16:39:00,52.2,19.2,-100.00,ENE,65,3.1,3.6,27,0.00,,,0.00,VWS V14.01,2013-03-18 23:39:00,
2013-03-18 16:44:00,52.2,19.2,-100.00,ENE,70,2.7,2.7,27,0.00,,,0.00,VWS V14.01,2013-03-18 23:44:00,
2013-03-18 16:49:00,52.2,19.2,-100.00,NNW,345,2.7,3.1,27,0.00,,,0.00,VWS V14.01,2013-03-18 23:49:00,
2013-03-18 16:54:00,52.0,19.1,-100.00,East,86,0.0,0.0,27,0.00,,,0.00,VWS V14.01,2013-03-18 23:54:00,
2013-03-18 16:59:00,52.0,18.2,-100.00,ENE,68,0.0,0.0,26,0.00,,,0.00,VWS V14.01,2013-03-18 23:59:00,
2013-03-18 17:04:00,52.0,19.1,-100.00,NW,319,2.7,2.7,27,0.00,,,0.00,VWS V14.01,2013-03-19 00:04:00,
2013-03-18 17:09:00,51.8,18.0,-100.00,WNW,289,0.0,0.0,26,0.00,,,0.00,VWS V14.01,2013-03-19 00:09:00,
2013-03-18 17:14:00,51.8,18.9,-100.00,NNE,17,0.0,0.0,27,0.00,,,0.00,VWS V14.01,2013-03-19 00:14:00,
2013-03-18 17:19:00,51.6,18.8,-100.00,ENE,76,2.2,2.2,27,0.00,,,0.00,VWS V14.01,2013-03-19 00:19:00,
2013-03-18 17:24:00,51.3,19.3,-100.00,East,89,2.7,2.7,28,0.00,,,0.00,VWS V14.01,2013-03-19 00:24:00,
2013-03-18 17:29:00,50.9,19.0,-100.00,North,3,5.8,5.8,28,0.00,,,0.00,VWS V14.01,2013-03-19 00:29:00,
2013-03-18 17:34:00,50.5,18.7,-100.00,North,2,3.6,3.6,28,0.00,,,0.00,VWS V14.01,2013-03-19 00:34:00,
2013-03-18 17:39:00,50.5,18.7,-100.00,North,9,0.0,2.7,28,0.00,,,0.00,VWS V14.01,2013-03-19 00:39:00,
2013-03-18 17:44:00,50.2,19.2,-100.00,East,84,0.0,2.7,29,0.00,,,0.00,VWS V14.01,2013-03-19 00:44:00,
2013-03-18 17:49:00,49.6,18.7,-100.00,North,9,0.0,0.0,29,0.00,,,0.00,VWS V14.01,2013-03-19 00:49:00,
2013-03-18 17:54:00,49.3,18.4,-100.00,ESE,112,0.0,0.0,29,0.00,,,0.00,VWS V14.01,2013-03-19 00:54:00,
2013-03-18 17:59:00,48.7,17.9,-100.00,NNW,348,0.0,0.0,29,0.00,,,0.00,VWS V14.01,2013-03-19 00:59:00,
2013-03-18 18:04:00,48.6,18.5,-100.00,NNW,344,3.6,4.0,30,0.00,,,0.00,VWS V14.01,2013-03-19 01:04:00,
2013-03-18 18:09:00,48.4,18.4,-100.00,NNW,336,2.2,2.2,30,0.00,,,0.00,VWS V14.01,2013-03-19 01:09:00,
2013-03-18 18:14:00,47.8,18.7,-100.00,NNW,341,0.0,0.0,31,0.00,,,0.00,VWS V14.01,2013-03-19 01:14:00,
2013-03-18 18:19:00,47.5,18.4,-100.00,NNW,328,0.0,0.0,31,0.00,,,0.00,VWS V14.01,2013-03-19 01:19:00,
2013-03-18 18:24:00,47.3,18.2,-100.00,East,80,0.0,0.0,31,0.00,,,0.00,VWS V14.01,2013-03-19 01:24:00,
2013-03-18 18:29:00,46.9,17.9,-100.00,ENE,74,0.0,2.7,31,0.00,,,0.00,VWS V14.01,2013-03-19 01:29:00,
2013-03-18 18:34:00,46.6,18.3,-100.00,ESE,113,0.0,0.0,32,0.00,,,0.00,VWS V14.01,2013-03-19 01:34:00,
2013-03-18 18:39:00,46.2,18.0,-100.00,North,10,0.0,0.0,32,0.00,,,0.00,VWS V14.01,2013-03-19 01:39:00,
2013-03-18 18:44:00,45.9,19.1,-100.00,NW,315,2.2,2.2,34,0.00,,,0.00,VWS V14.01,2013-03-19 01:44:00,
2013-03-18 18:49:00,45.3,19.3,-100.00,SE,131,3.1,3.1,35,0.00,,,0.00,VWS V14.01,2013-03-19 01:49:00,
2013-03-18 18:54:00,44.8,20.1,-100.00,ENE,68,0.0,0.0,37,0.00,,,0.00,VWS V14.01,2013-03-19 01:54:00,
2013-03-18 18:59:00,44.2,20.3,-100.00,East,79,0.0,0.0,38,0.00,,,0.00,VWS V14.01,2013-03-19 01:59:00,
2013-03-18 19:04:00,43.7,19.8,-100.00,North,0,0.0,0.0,38,0.00,,,0.00,VWS V14.01,2013-03-19 02:04:00,
2013-03-18 19:09:00,43.3,20.1,-100.00,NNE,24,0.0,0.0,39,0.00,,,0.00,VWS V14.01,2013-03-19 02:09:00,
2013-03-18 19:14:00,42.8,19.6,-100.00,NNE,12,0.0,0.0,39,0.00,,,0.00,VWS V14.01,2013-03-19 02:14:00,
2013-03-18 19:19:00,42.4,19.8,-100.00,NNW,329,0.0,2.7,40,0.00,,,0.00,VWS V14.01,2013-03-19 02:19:00,
2013-03-18 19:24:00,42.3,19.7,-100.00,NE,48,0.0,0.0,40,0.00,,,0.00,VWS V14.01,2013-03-19 02:24:00,
2013-03-18 19:29:00,42.1,20.1,-100.00,North,0,0.0,0.0,41,0.00,,,0.00,VWS V14.01,2013-03-19 02:29:00,
2013-03-18 19:34:00,41.5,19.6,-100.00,NE,35,0.0,0.0,41,0.00,,,0.00,VWS V14.01,2013-03-19 02:34:00,
2013-03-18 19:39:00,41.2,19.3,-100.00,NNE,21,0.0,0.0,41,0.00,,,0.00,VWS V14.01,2013-03-19 02:39:00,
2013-03-18 19:44:00,41.0,19.1,-100.00,NNE,28,0.0,0.0,41,0.00,,,0.00,VWS V14.01,2013-03-19 02:44:00,
2013-03-18 19:49:00,40.8,19.5,-100.00,NNW,337,3.1,3.1,42,0.00,,,0.00,VWS V14.01,2013-03-19 02:49:00,
2013-03-18 19:54:00,40.6,19.9,-100.00,NW,315,0.0,0.0,43,0.00,,,0.00,VWS V14.01,2013-03-19 02:54:00,
2013-03-18 19:59:00,40.3,19.6,-100.00,NW,323,0.0,0.0,43,0.00,,,0.00,VWS V14.01,2013-03-19 02:59:00,
2013-03-18 20:04:00,39.9,19.2,-100.00,NNW,335,0.0,0.0,43,0.00,,,0.00,VWS V14.01,2013-03-19 03:04:00,
2013-03-18 20:09:00,39.7,19.1,-100.00,NNW,340,0.0,0.0,43,0.00,,,0.00,VWS V14.01,2013-03-19 03:09:00,
2013-03-18 20:14:00,39.6,19.5,-100.00,NNE,28,0.0,0.0,44,0.00,,,0.00,VWS V14.01,2013-03-19 03:14:00,
2013-03-18 20:19:00,39.6,19.5,-100.00,NE,50,0.0,0.0,44,0.00,,,0.00,VWS V14.01,2013-03-19 03:19:00,
2013-03-18 20:24:00,39.4,19.3,-100.00,NNE,26,0.0,0.0,44,0.00,,,0.00,VWS V14.01,2013-03-19 03:24:00,
2013-03-18 20:29:00,39.0,19.5,-100.00,NE,38,0.0,0.0,45,0.00,,,0.00,VWS V14.01,2013-03-19 03:29:00,
2013-03-18 20:34:00,38.8,19.8,-100.00,NE,50,0.0,0.0,46,0.00,,,0.00,VWS V14.01,2013-03-19 03:34:00,
2013-03-18 20:39:00,38.7,20.2,-100.00,NNE,16,0.0,0.0,47,0.00,,,0.00,VWS V14.01,2013-03-19 03:39:00,
2013-03-18 20:44:00,38.7,20.2,-100.00,NNE,20,0.0,0.0,47,0.00,,,0.00,VWS V14.01,2013-03-19 03:44:00,
2013-03-18 20:49:00,38.5,20.0,-100.00,North,0,0.0,0.0,47,0.00,,,0.00,VWS V14.01,2013-03-19 03:49:00,
2013-03-18 20:54:00,38.1,20.2,-100.00,NNE,12,0.0,0.0,48,0.00,,,0.00,VWS V14.01,2013-03-19 03:54:00,
2013-03-18 20:59:00,37.8,19.9,-100.00,NNE,12,0.0,0.0,48,0.00,,,0.00,VWS V14.01,2013-03-19 03:59:00,
2013-03-18 21:00:00,37.8,19.9,-100.00,NNE,12,0.0,0.0,48,0.00,,,0.00,VWS V14.01,2013-03-19 04:00:00,
2013-03-18 21:05:00,37.6,20.2,-100.00,North,0,0.0,0.0,49,0.00,,,0.00,VWS V14.01,2013-03-19 04:05:00,
2013-03-18 21:10:00,37.4,20.0,-100.00,North,0,0.0,0.0,49,0.00,,,0.00,VWS V14.01,2013-03-19 04:10:00,
2013-03-18 21:15:00,37.0,20.1,-100.00,North,0,0.0,0.0,50,0.00,,,0.00,VWS V14.01,2013-03-19 04:15:00,
2013-03-18 21:20:00,36.7,19.8,-100.00,North,0,0.0,0.0,50,0.00,,,0.00,VWS V14.01,2013-03-19 04:20:00,
2013-03-18 21:25:00,36.0,19.6,-100.00,North,0,0.0,0.0,51,0.00,,,0.00,VWS V14.01,2013-03-19 04:25:00,
2013-03-18 21:30:00,35.4,20.0,-100.00,North,6,0.0,0.0,53,0.00,,,0.00,VWS V14.01,2013-03-19 04:30:00,
2013-03-18 21:35:00,35.4,20.4,-100.00,North,6,0.0,0.0,54,0.00,,,0.00,VWS V14.01,2013-03-19 04:35:00,
2013-03-18 21:40:00,35.4,20.0,-100.00,North,6,0.0,0.0,53,0.00,,,0.00,VWS V14.01,2013-03-19 04:40:00,
2013-03-18 21:45:00,35.2,20.3,-100.00,North,6,0.0,0.0,54,0.00,,,0.00,VWS V14.01,2013-03-19 04:45:00,
2013-03-18 21:50:00,35.4,20.9,-100.00,North,6,0.0,0.0,55,0.00,,,0.00,VWS V14.01,2013-03-19 04:50:00,
2013-03-18 21:55:00,35.4,20.9,-100.00,North,0,0.0,0.0,55,0.00,,,0.00,VWS V14.01,2013-03-19 04:55:00,
2013-03-18 22:00:00,35.4,20.4,-100.00,NNW,345,0.0,0.0,54,0.00,,,0.00,VWS V14.01,2013-03-19 05:00:00,
2013-03-18 22:05:00,35.1,20.5,-100.00,North,353,0.0,0.0,55,0.00,,,0.00,VWS V14.01,2013-03-19 05:05:00,
2013-03-18 22:10:00,34.9,20.8,-100.00,North,353,0.0,0.0,56,0.00,,,0.00,VWS V14.01,2013-03-19 05:10:00,
2013-03-18 22:15:00,34.5,20.5,-100.00,North,353,0.0,0.0,56,0.00,,,0.00,VWS V14.01,2013-03-19 05:15:00,
2013-03-18 22:20:00,34.2,20.5,-100.00,North,353,0.0,0.0,57,0.00,,,0.00,VWS V14.01,2013-03-19 05:20:00,
2013-03-18 22:25:00,34.0,20.4,-100.00,North,353,0.0,0.0,57,0.00,,,0.00,VWS V14.01,2013-03-19 05:25:00,
2013-03-18 22:30:00,33.6,20.4,-100.00,North,353,0.0,0.0,58,0.00,,,0.00,VWS V14.01,2013-03-19 05:30:00,
2013-03-18 22:35:00,33.6,21.6,-100.00,North,353,0.0,0.0,61,0.00,,,0.00,VWS V14.01,2013-03-19 05:35:00,
2013-03-18 22:40:00,34.0,21.6,-100.00,North,353,0.0,0.0,60,0.00,,,0.00,VWS V14.01,2013-03-19 05:40:00,
2013-03-18 22:44:00,34.3,21.1,-100.00,North,353,0.0,0.0,58,0.00,,,0.00,VWS V14.01,2013-03-19 05:44:00,
2013-03-18 22:49:00,34.5,21.3,-100.00,North,353,0.0,0.0,58,0.00,,,0.00,VWS V14.01,2013-03-19 05:49:00,
2013-03-18 22:55:00,34.9,21.2,-100.00,NW,324,0.0,0.0,57,0.00,,,0.00,VWS V14.01,2013-03-19 05:55:00,
2013-03-18 23:00:00,34.9,21.2,-100.00,NW,324,0.0,0.0,57,0.00,,,0.00,VWS V14.01,2013-03-19 06:00:00,
2013-03-18 23:05:00,34.7,21.0,-100.00,NW,324,0.0,0.0,57,0.00,,,0.00,VWS V14.01,2013-03-19 06:05:00,
2013-03-18 23:10:00,34.5,20.9,-100.00,NW,324,0.0,0.0,57,0.00,,,0.00,VWS V14.01,2013-03-19 06:10:00,
2013-03-18 23:15:00,34.2,20.5,-100.00,West,279,0.0,0.0,57,0.00,,,0.00,VWS V14.01,2013-03-19 06:15:00,
2013-03-18 23:20:00,34.0,20.4,-100.00,West,279,0.0,0.0,57,0.00,,,0.00,VWS V14.01,2013-03-19 06:20:00,
2013-03-18 23:24:00,33.6,20.8,-100.00,West,279,0.0,0.0,59,0.00,,,0.00,VWS V14.01,2013-03-19 06:24:00,
2013-03-18 23:29:00,33.3,20.9,-100.00,West,279,0.0,0.0,60,0.00,,,0.00,VWS V14.01,2013-03-19 06:29:00,
2013-03-18 23:34:00,33.1,20.7,-100.00,West,279,0.0,0.0,60,0.00,,,0.00,VWS V14.01,2013-03-19 06:34:00,
2013-03-18 23:39:00,32.7,20.0,-100.00,West,279,0.0,0.0,59,0.00,,,0.00,VWS V14.01,2013-03-19 06:39:00,
2013-03-18 23:44:00,32.4,21.2,-100.00,West,279,0.0,0.0,63,0.00,,,0.00,VWS V14.01,2013-03-19 06:44:00,
2013-03-18 23:49:00,32.0,20.5,-100.00,West,279,0.0,0.0,62,0.00,,,0.00,VWS V14.01,2013-03-19 06:49:00,
2013-03-18 23:54:00,31.6,20.5,-100.00,West,279,0.0,0.0,63,0.00,,,0.00,VWS V14.01,2013-03-19 06:54:00,
2013-03-18 23:59:00,31.1,20.4,-100.00,West,279,0.0,0.0,64,0.00,,,0.00,VWS V14.01,2013-03-19 06:59:00,